Time;durP1;ratioP1;P1;durP2;ratioP2;P2;SDS_P1;SDS_P2;PMS_P1;PMS_P2;Temp;Humidity;BMP_temperature;BMP_pressure;BME280_temperature;BME280_humidity;BME280_pressure;Samples;Min_cycle;Max_cycle;Signal;HPM_P1;HPM_P2
2021/03/15 00:00:13;;;;;;;2.22;0.80;;;7.60;87.30;;;;;;5092037;28;20024;-70
2021/03/15 00:02:40;;;;;;;3.45;1.15;;;7.60;87.60;;;;;;5092267;28;20387;-70
2021/03/15 00:05:08;;;;;;;1.60;0.60;;;7.60;87.80;;;;;;5092490;28;20028;-70
2021/03/15 00:07:33;;;;;;;6.25;1.20;;;7.60;87.80;;;;;;5091599;28;20030;-70
2021/03/15 00:09:59;;;;;;;3.17;0.95;;;7.60;87.80;;;;;;5092510;28;20115;-70
2021/03/15 00:12:25;;;;;;;1.00;0.75;;;7.60;87.60;;;;;;5095132;28;20047;-70
2021/03/15 00:14:51;;;;;;;3.95;1.30;;;7.60;87.50;;;;;;5103689;28;20114;-70
2021/03/15 00:17:17;;;;;;;0.50;0.50;;;7.60;87.40;;;;;;5102144;28;20064;-70
2021/03/15 00:19:43;;;;;;;0.40;0.40;;;7.60;87.20;;;;;;5096066;28;20023;-70
2021/03/15 00:22:08;;;;;;;1.00;0.75;;;7.70;87.10;;;;;;5095438;28;20032;-70
2021/03/15 00:24:34;;;;;;;5.60;0.90;;;7.70;87.00;;;;;;5095815;28;20460;-70
2021/03/15 00:26:59;;;;;;;0.57;0.43;;;7.70;86.90;;;;;;5095858;28;20070;-70
2021/03/15 00:29:25;;;;;;;1.63;0.68;;;7.70;86.80;;;;;;5095286;28;20059;-71
2021/03/15 00:31:51;;;;;;;2.53;0.93;;;7.80;86.70;;;;;;5109804;28;20082;-70
2021/03/15 00:34:17;;;;;;;3.58;0.82;;;7.70;86.60;;;;;;5095069;28;20036;-70
2021/03/15 00:36:43;;;;;;;4.57;0.82;;;7.70;86.60;;;;;;5095747;28;20032;-70
2021/03/15 00:39:11;;;;;;;0.60;0.60;;;7.70;86.60;;;;;;5095728;28;20103;-70
2021/03/15 00:41:37;;;;;;;1.10;0.52;;;7.70;86.70;;;;;;5094712;28;20775;-70
2021/03/15 00:44:03;;;;;;;0.40;0.40;;;7.70;86.80;;;;;;5095516;28;20056;-70
2021/03/15 00:46:28;;;;;;;0.43;0.43;;;7.70;86.90;;;;;;5095624;28;20032;-70
2021/03/15 00:48:54;;;;;;;0.65;0.50;;;7.70;86.90;;;;;;5108939;28;20032;-70
2021/03/15 00:51:20;;;;;;;0.80;0.73;;;7.60;86.70;;;;;;5095484;28;20024;-70
2021/03/15 00:53:46;;;;;;;0.85;0.40;;;7.70;86.70;;;;;;5108297;28;20058;-70
2021/03/15 00:56:12;;;;;;;7.88;0.60;;;7.70;86.70;;;;;;5094593;28;20075;-70
2021/03/15 00:58:38;;;;;;;1.30;0.40;;;7.70;86.60;;;;;;5109582;28;20092;-70
2021/03/15 01:01:04;;;;;;;0.30;0.30;;;7.70;86.50;;;;;;5094023;28;20020;-70
2021/03/15 01:03:44;;;;;;;0.32;0.32;;;7.70;86.50;;;;;;5107462;28;20032;-70
2021/03/15 01:06:12;;;;;;;0.40;0.40;;;7.70;86.40;;;;;;5108945;28;20380;-70
2021/03/15 01:08:41;;;;;;;1.00;0.43;;;7.70;86.30;;;;;;5095037;28;20040;-70
2021/03/15 01:11:16;;;;;;;1.85;1.20;;;7.70;86.30;;;;;;5093213;28;20036;-70
2021/03/15 01:13:47;;;;;;;9.85;0.60;;;7.70;86.30;;;;;;5093723;28;20039;-70
2021/03/15 01:16:18;;;;;;;0.40;0.40;;;7.60;86.20;;;;;;5095063;28;20025;-70
2021/03/15 01:18:44;;;;;;;0.65;0.50;;;7.60;86.10;;;;;;5092922;28;20085;-70
2021/03/15 01:21:12;;;;;;;0.30;0.30;;;7.60;86.10;;;;;;5094684;28;20031;-70
2021/03/15 01:23:41;;;;;;;7.68;0.77;;;7.60;86.20;;;;;;5093949;28;20489;-70
2021/03/15 01:26:06;;;;;;;0.50;0.50;;;7.60;86.10;;;;;;5094770;28;20032;-70
2021/03/15 01:28:32;;;;;;;0.30;0.30;;;7.50;85.90;;;;;;5094861;28;20576;-69
2021/03/15 01:30:59;;;;;;;0.40;0.40;;;7.60;85.90;;;;;;5104871;28;20379;-70
2021/03/15 01:33:26;;;;;;;0.35;0.35;;;7.50;85.80;;;;;;5097270;28;20098;-70
2021/03/15 01:35:52;;;;;;;2.30;0.45;;;7.60;85.80;;;;;;5094673;28;20024;-70
2021/03/15 01:38:18;;;;;;;5.18;0.60;;;7.50;85.70;;;;;;5093920;28;20032;-70
2021/03/15 01:40:44;;;;;;;0.55;0.55;;;7.40;85.60;;;;;;5094724;28;20024;-70
2021/03/15 01:43:10;;;;;;;0.77;0.45;;;7.50;85.60;;;;;;5094670;28;20066;-70
2021/03/15 01:45:37;;;;;;;0.98;0.77;;;7.40;85.60;;;;;;5093484;28;20024;-70
2021/03/15 01:48:12;;;;;;;0.40;0.40;;;7.40;85.50;;;;;;5094370;28;20035;-69
2021/03/15 01:50:39;;;;;;;0.73;0.60;;;7.40;85.50;;;;;;5094285;28;20077;-70
2021/03/15 01:53:05;;;;;;;0.63;0.60;;;7.40;85.50;;;;;;5093831;28;20048;-70
2021/03/15 01:55:30;;;;;;;1.30;0.50;;;7.40;85.40;;;;;;5094235;28;20039;-70
2021/03/15 01:57:56;;;;;;;1.20;0.50;;;7.30;85.50;;;;;;5103222;28;20475;-70
2021/03/15 02:00:22;;;;;;;0.90;0.85;;;7.30;85.50;;;;;;5098503;28;20036;-70
2021/03/15 02:02:57;;;;;;;0.52;0.52;;;7.20;85.50;;;;;;5094014;28;20111;-70
2021/03/15 02:05:31;;;;;;;0.30;0.30;;;7.30;85.60;;;;;;5093999;28;20126;-70
2021/03/15 02:07:57;;;;;;;0.40;0.40;;;7.30;85.50;;;;;;5093210;28;20034;-70
2021/03/15 02:10:23;;;;;;;1.20;0.93;;;7.30;85.40;;;;;;5094048;28;20035;-70
2021/03/15 02:13:13;;;;;;;2.55;1.27;;;7.20;85.30;;;;;;5092984;28;20030;-70
2021/03/15 02:15:57;;;;;;;0.60;0.60;;;7.20;85.40;;;;;;5093746;28;20094;-70
2021/03/15 02:18:41;;;;;;;2.38;0.73;;;7.20;85.30;;;;;;5093937;28;20040;-70
2021/03/15 02:21:26;;;;;;;0.90;0.50;;;7.10;85.30;;;;;;5092824;28;20034;-70
2021/03/15 02:23:59;;;;;;;0.52;0.52;;;7.10;85.30;;;;;;5094130;28;20028;-70
2021/03/15 02:27:18;;;;;;;0.47;0.47;;;7.10;85.30;;;;;;5093695;28;20054;-70
2021/03/15 02:30:21;;;;;;;0.30;0.30;;;7.10;85.50;;;;;;5093969;28;20070;-70
2021/03/15 02:33:21;;;;;;;1.02;0.77;;;7.10;85.30;;;;;;5101582;28;20085;-70
2021/03/15 02:35:48;;;;;;;0.82;0.82;;;7.00;85.30;;;;;;5092733;28;20039;-70
2021/03/15 02:38:15;;;;;;;0.60;0.60;;;7.00;85.30;;;;;;5093260;28;20032;-70
2021/03/15 02:40:53;;;;;;;1.83;0.93;;;7.00;85.40;;;;;;5104945;28;20045;-70
2021/03/15 02:43:27;;;;;;;0.50;0.50;;;6.90;85.40;;;;;;5104784;28;20027;-70
2021/03/15 02:45:59;;;;;;;1.52;1.13;;;6.80;85.50;;;;;;5099069;28;20043;-70
2021/03/15 02:48:27;;;;;;;0.40;0.40;;;6.90;85.70;;;;;;5112542;28;20515;-69
2021/03/15 02:50:54;;;;;;;5.00;0.80;;;6.80;85.70;;;;;;5099916;28;20115;-70
2021/03/15 02:53:20;;;;;;;0.60;0.60;;;6.80;85.70;;;;;;5113624;28;20043;-70
2021/03/15 02:55:49;;;;;;;6.68;2.15;;;6.80;85.70;;;;;;5112740;28;20034;-70
2021/03/15 02:58:17;;;;;;;1.15;1.00;;;6.80;86.40;;;;;;5102150;28;20036;-70
2021/03/15 03:00:44;;;;;;;0.90;0.70;;;6.80;85.80;;;;;;5110766;28;20028;-70
2021/03/15 03:03:10;;;;;;;5.60;1.27;;;6.80;85.90;;;;;;5112659;28;20061;-70
2021/03/15 03:05:37;;;;;;;1.30;0.82;;;6.80;86.00;;;;;;5113442;28;20035;-70
2021/03/15 03:08:04;;;;;;;4.07;1.27;;;6.80;86.00;;;;;;5105704;28;20426;-70
2021/03/15 03:10:31;;;;;;;2.85;1.42;;;6.80;86.10;;;;;;5106519;28;20035;-70
2021/03/15 03:12:58;;;;;;;2.58;0.93;;;6.70;86.20;;;;;;5099091;28;20059;-70
2021/03/15 03:15:29;;;;;;;7.00;1.08;;;6.70;86.30;;;;;;5101185;28;20028;-70
2021/03/15 03:17:57;;;;;;;2.97;1.25;;;6.80;86.40;;;;;;5110823;28;20042;-70
2021/03/15 03:20:25;;;;;;;3.92;1.27;;;6.70;86.50;;;;;;5112990;28;20019;-70
2021/03/15 03:22:53;;;;;;;1.50;1.15;;;6.70;86.60;;;;;;5112911;28;20427;-70
2021/03/15 03:25:22;;;;;;;4.88;1.13;;;6.70;86.70;;;;;;5112323;28;20028;-70
2021/03/15 03:27:54;;;;;;;8.00;1.27;;;6.70;86.80;;;;;;5112679;28;20031;-70
2021/03/15 03:30:26;;;;;;;4.65;1.40;;;6.70;87.00;;;;;;5112353;28;20031;-70
2021/03/15 03:32:53;;;;;;;10.55;1.55;;;6.70;87.10;;;;;;5112468;28;20047;-70
2021/03/15 03:35:20;;;;;;;4.82;1.55;;;6.70;87.30;;;;;;5113153;28;20024;-70
2021/03/15 03:37:45;;;;;;;8.90;1.10;;;6.70;87.40;;;;;;5112204;28;20488;-70
2021/03/15 03:40:12;;;;;;;11.80;1.75;;;6.70;87.70;;;;;;5112986;28;20102;-70
2021/03/15 03:42:38;;;;;;;1.08;0.85;;;6.70;87.80;;;;;;5112854;28;20510;-70
2021/03/15 03:45:05;;;;;;;4.72;1.73;;;6.70;88.00;;;;;;5112072;28;20030;-70
2021/03/15 03:47:31;;;;;;;2.53;1.20;;;6.70;88.00;;;;;;5116656;28;20059;-70
2021/03/15 03:49:58;;;;;;;5.38;1.60;;;6.70;88.00;;;;;;5102569;27;20109;-70
2021/03/15 03:52:26;;;;;;;5.93;1.42;;;6.70;88.00;;;;;;5116344;28;20043;-70
2021/03/15 03:54:56;;;;;;;8.27;2.03;;;6.70;88.10;;;;;;5117052;28;20034;-70
2021/03/15 03:57:32;;;;;;;4.35;1.52;;;6.70;88.20;;;;;;5116934;27;20431;-70
2021/03/15 04:00:04;;;;;;;2.50;1.13;;;6.70;88.20;;;;;;5116162;28;20481;-70
2021/03/15 04:02:37;;;;;;;1.20;1.05;;;6.70;88.20;;;;;;5117039;28;20027;-70
2021/03/15 04:05:08;;;;;;;0.43;0.43;;;6.70;88.30;;;;;;5116794;28;20595;-70
2021/03/15 04:07:38;;;;;;;0.85;0.80;;;6.70;88.30;;;;;;5116076;28;20042;-70
2021/03/15 04:10:09;;;;;;;5.35;2.20;;;6.70;88.40;;;;;;5116701;28;20061;-70
2021/03/15 04:12:40;;;;;;;2.65;0.82;;;6.70;88.30;;;;;;5115860;28;20055;-70
2021/03/15 04:15:07;;;;;;;0.63;0.63;;;6.70;88.20;;;;;;5116596;28;20119;-70
2021/03/15 04:17:40;;;;;;;1.52;1.42;;;6.70;88.20;;;;;;5116527;28;20038;-70
2021/03/15 04:20:09;;;;;;;2.20;1.05;;;6.70;88.10;;;;;;5115838;28;20031;-70
2021/03/15 04:22:49;;;;;;;0.70;0.55;;;6.70;88.00;;;;;;5116558;28;20035;-70
2021/03/15 04:25:16;;;;;;;0.52;0.52;;;6.80;88.00;;;;;;5116597;28;20020;-70
2021/03/15 04:27:43;;;;;;;1.45;0.75;;;6.70;87.80;;;;;;5115515;28;20471;-70
2021/03/15 04:30:11;;;;;;;6.50;1.33;;;6.70;87.70;;;;;;5116356;28;20124;-70
2021/03/15 04:32:39;;;;;;;5.43;1.27;;;6.80;87.80;;;;;;5115866;28;20060;-70
2021/03/15 04:35:07;;;;;;;2.78;0.93;;;6.80;87.70;;;;;;5115780;28;20124;-70
2021/03/15 04:37:33;;;;;;;6.57;1.63;;;6.80;87.70;;;;;;5114752;28;20028;-70
2021/03/15 04:39:59;;;;;;;6.38;1.40;;;6.80;87.70;;;;;;5116162;28;20471;-70
2021/03/15 04:42:25;;;;;;;12.32;2.10;;;6.80;87.70;;;;;;5102006;28;20028;-70
2021/03/15 04:44:51;;;;;;;5.10;1.08;;;6.80;87.70;;;;;;5115025;28;20557;-70
2021/03/15 04:47:17;;;;;;;4.05;1.55;;;6.70;87.60;;;;;;5115923;28;20485;-71
2021/03/15 04:49:47;;;;;;;11.93;2.05;;;6.80;87.70;;;;;;5102058;28;20357;-70
2021/03/15 04:52:14;;;;;;;8.68;2.13;;;6.80;87.60;;;;;;5115796;28;20040;-71
2021/03/15 04:54:41;;;;;;;11.57;1.98;;;6.80;87.60;;;;;;5114567;28;20085;-71
2021/03/15 04:57:11;;;;;;;7.18;1.55;;;6.80;87.50;;;;;;5115051;28;20031;-68
2021/03/15 04:59:38;;;;;;;12.43;2.28;;;6.80;87.30;;;;;;5115806;28;20035;-70
2021/03/15 05:02:07;;;;;;;8.70;1.83;;;6.80;87.40;;;;;;5114557;28;20054;-72
2021/03/15 05:04:36;;;;;;;5.32;1.27;;;6.80;87.20;;;;;;5115612;28;20023;-70
2021/03/15 05:07:03;;;;;;;2.30;1.08;;;6.80;87.20;;;;;;5115654;27;20080;-70
2021/03/15 05:09:31;;;;;;;7.68;1.95;;;6.80;87.20;;;;;;5114953;28;20458;-71
2021/03/15 05:11:57;;;;;;;3.42;0.95;;;6.80;87.20;;;;;;5115218;28;20039;-70
2021/03/15 05:14:23;;;;;;;17.45;2.95;;;6.80;87.30;;;;;;5115226;28;20031;-70
2021/03/15 05:16:49;;;;;;;9.02;1.23;;;6.80;87.30;;;;;;5114575;28;20088;-70
2021/03/15 05:19:16;;;;;;;8.85;1.42;;;6.70;87.30;;;;;;5115270;28;20027;-70
2021/03/15 05:21:44;;;;;;;9.05;1.23;;;6.80;87.50;;;;;;5115195;28;20035;-70
2021/03/15 05:24:11;;;;;;;6.20;0.70;;;6.70;87.50;;;;;;5114194;28;20076;-70
2021/03/15 05:26:39;;;;;;;12.77;2.67;;;6.70;87.70;;;;;;5115202;28;20019;-70
2021/03/15 05:29:07;;;;;;;12.80;1.67;;;6.70;87.70;;;;;;5114715;27;20031;-70
2021/03/15 05:31:37;;;;;;;12.60;2.03;;;6.70;87.80;;;;;;5114158;28;20028;-70
2021/03/15 05:34:05;;;;;;;2.22;1.02;;;6.70;87.90;;;;;;5114081;28;20082;-70
2021/03/15 05:36:32;;;;;;;7.95;1.83;;;6.70;88.50;;;;;;5115008;28;20024;-70
2021/03/15 05:38:57;;;;;;;4.50;1.15;;;6.70;87.90;;;;;;5114277;28;20027;-70
2021/03/15 05:41:41;;;;;;;8.45;1.73;;;6.70;87.90;;;;;;5114702;28;20524;-70
2021/03/15 05:44:31;;;;;;;12.85;2.78;;;6.70;87.90;;;;;;5114227;28;20027;-70
2021/03/15 05:47:31;;;;;;;20.17;2.47;;;6.70;87.90;;;;;;5105131;28;20435;-70
2021/03/15 05:50:22;;;;;;;16.45;3.10;;;6.70;87.90;;;;;;5112553;28;20094;-70
2021/03/15 05:53:30;;;;;;;17.40;2.95;;;6.80;88.00;;;;;;5104651;28;20490;-70
2021/03/15 05:56:14;;;;;;;19.33;2.50;;;6.80;88.30;;;;;;5102949;28;20027;-70
2021/03/15 05:59:04;;;;;;;15.45;1.48;;;6.70;88.00;;;;;;5114078;28;20031;-70
2021/03/15 06:01:36;;;;;;;10.98;1.92;;;6.70;88.00;;;;;;5114617;28;20455;-70
2021/03/15 06:04:21;;;;;;;17.15;3.75;;;6.70;88.60;;;;;;5113629;28;20019;-69
2021/03/15 06:06:49;;;;;;;3.05;0.95;;;6.80;88.70;;;;;;5113876;28;20432;-70
2021/03/15 06:09:20;;;;;;;17.63;3.78;;;6.80;88.70;;;;;;5109026;28;20080;-70
2021/03/15 06:11:50;;;;;;;4.65;1.23;;;6.80;88.70;;;;;;5110742;28;20051;-70
2021/03/15 06:14:16;;;;;;;22.98;4.45;;;6.80;88.50;;;;;;5111067;28;20028;-71
2021/03/15 06:16:42;;;;;;;24.90;2.97;;;6.80;88.60;;;;;;5112365;28;20027;-71
2021/03/15 06:19:09;;;;;;;11.52;2.92;;;6.80;88.50;;;;;;5112753;27;20031;-71
2021/03/15 06:21:36;;;;;;;17.95;3.08;;;6.80;88.50;;;;;;5097752;28;20032;-70
2021/03/15 06:24:01;;;;;;;18.75;2.72;;;6.80;88.50;;;;;;5103787;28;20027;-69
2021/03/15 06:26:31;;;;;;;37.10;4.97;;;6.80;88.60;;;;;;5100501;28;20383;-71
2021/03/15 06:29:04;;;;;;;28.15;3.70;;;6.90;88.80;;;;;;5100558;28;20024;-70
2021/03/15 06:31:33;;;;;;;3.92;1.65;;;6.80;89.60;;;;;;5100830;28;20046;-71
2021/03/15 06:33:59;;;;;;;9.45;1.15;;;6.80;88.90;;;;;;5103111;28;20207;-70
2021/03/15 06:36:26;;;;;;;14.15;2.38;;;6.80;88.90;;;;;;5102862;28;20122;-67
2021/03/15 06:38:54;;;;;;;19.45;2.38;;;6.90;89.70;;;;;;5097084;28;20028;-68
2021/03/15 06:41:22;;;;;;;11.00;1.70;;;6.90;89.20;;;;;;5093654;28;20046;-70
2021/03/15 06:43:48;;;;;;;19.17;2.28;;;6.90;89.20;;;;;;5102386;28;20023;-68
2021/03/15 06:46:15;;;;;;;4.63;1.27;;;6.90;89.20;;;;;;5113483;28;20057;-69
2021/03/15 06:48:42;;;;;;;5.00;1.77;;;6.90;89.20;;;;;;5111573;28;20080;-69
2021/03/15 06:51:08;;;;;;;18.67;2.83;;;6.90;89.30;;;;;;5113328;28;20027;-72
2021/03/15 06:53:41;;;;;;;10.05;3.20;;;7.00;89.50;;;;;;5112861;28;20868;-69
2021/03/15 06:56:14;;;;;;;;;;;6.90;89.50;;;;;;5112749;28;20033;-68
2021/03/15 06:58:55;;;;;;;5.80;1.77;;;7.00;89.40;;;;;;5110220;28;20002;-68
2021/03/15 07:01:25;;;;;;;7.30;2.10;;;7.00;89.30;;;;;;5112570;28;20363;-71
2021/03/15 07:04:03;;;;;;;6.30;1.67;;;7.00;89.40;;;;;;5113087;28;20036;-69
2021/03/15 07:06:41;;;;;;;9.52;1.98;;;7.00;89.50;;;;;;5099370;28;20019;-74
2021/03/15 07:09:11;;;;;;;10.18;2.42;;;7.10;89.60;;;;;;5093593;28;20071;-75
2021/03/15 07:11:37;;;;;;;23.40;4.55;;;7.10;89.60;;;;;;5108299;28;20035;-70
2021/03/15 07:14:03;;;;;;;11.70;2.55;;;7.10;89.80;;;;;;5097452;28;20040;-69
2021/03/15 07:16:30;;;;;;;16.55;2.38;;;7.10;89.80;;;;;;5106388;28;20115;-69
2021/03/15 07:19:17;;;;;;;22.38;2.83;;;7.10;89.90;;;;;;5103078;28;20110;-72
2021/03/15 07:21:42;;;;;;;20.70;2.92;;;7.20;89.90;;;;;;5109376;28;20169;-68
2021/03/15 07:24:11;;;;;;;12.13;2.08;;;7.20;90.00;;;;;;5109367;28;20502;-70
2021/03/15 07:26:43;;;;;;;11.05;1.33;;;7.20;90.00;;;;;;5105099;28;20023;-69
2021/03/15 07:29:14;;;;;;;44.25;3.40;;;7.30;89.90;;;;;;5111160;28;20077;-69
2021/03/15 07:31:44;;;;;;;9.23;1.63;;;7.30;90.10;;;;;;5112098;28;20028;-76
2021/03/15 07:34:17;;;;;;;22.20;3.72;;;7.30;90.00;;;;;;5111895;28;20032;-69
2021/03/15 07:36:52;;;;;;;13.10;1.83;;;7.40;90.10;;;;;;5111726;28;20032;-69
2021/03/15 07:39:19;;;;;;;9.77;2.42;;;7.40;90.20;;;;;;5111928;28;20392;-69
2021/03/15 07:41:50;;;;;;;26.33;3.30;;;7.40;90.10;;;;;;5111270;28;20028;-69
2021/03/15 07:44:29;;;;;;;23.30;3.90;;;7.40;90.10;;;;;;5102469;28;20062;-69
2021/03/15 07:46:59;;;;;;;15.30;1.48;;;7.40;90.20;;;;;;5101666;28;20039;-69
2021/03/15 07:49:25;;;;;;;13.20;2.15;;;7.40;90.20;;;;;;5099778;28;20046;-69
2021/03/15 07:51:57;;;;;;;17.23;3.80;;;7.50;90.20;;;;;;5091866;28;20437;-69
2021/03/15 07:54:44;;;;;;;15.38;2.40;;;7.50;90.30;;;;;;5092360;28;20028;-69
2021/03/15 07:57:24;;;;;;;16.83;2.70;;;7.60;90.20;;;;;;5108134;28;20099;-69
2021/03/15 07:59:57;;;;;;;22.55;5.00;;;7.60;90.30;;;;;;5112240;28;20542;-70
2021/03/15 08:02:25;;;;;;;18.05;2.80;;;7.60;90.30;;;;;;5112419;28;20024;-69
2021/03/15 08:04:55;;;;;;;26.83;4.65;;;7.60;90.40;;;;;;5111662;28;20042;-70
2021/03/15 08:07:22;;;;;;;32.95;4.15;;;7.70;90.60;;;;;;5110334;28;20061;-70
2021/03/15 08:09:55;;;;;;;25.70;4.65;;;7.70;90.70;;;;;;5112839;28;20062;-71
2021/03/15 08:12:23;;;;;;;26.23;3.53;;;7.70;90.60;;;;;;5107943;28;20036;-62
2021/03/15 08:15:02;;;;;;;18.50;2.90;;;7.70;90.60;;;;;;5104920;28;20747;-62
2021/03/15 08:17:29;;;;;;;22.70;4.18;;;7.80;90.50;;;;;;5106596;28;20158;-62
2021/03/15 08:19:57;;;;;;;24.98;3.28;;;7.80;90.50;;;;;;5102303;28;20506;-62
2021/03/15 08:22:32;;;;;;;18.90;3.33;;;7.80;90.60;;;;;;5111560;28;20026;-62
2021/03/15 08:24:59;;;;;;;30.23;4.25;;;7.90;90.60;;;;;;5112246;28;20482;-62
2021/03/15 08:27:28;;;;;;;26.27;3.75;;;7.90;90.60;;;;;;5111605;28;20099;-63
2021/03/15 08:30:00;;;;;;;37.08;3.30;;;8.00;90.70;;;;;;5112365;28;20034;-62
2021/03/15 08:32:29;;;;;;;17.60;3.20;;;8.00;90.60;;;;;;5100152;28;20144;-63
2021/03/15 08:34:56;;;;;;;25.55;4.72;;;8.10;90.60;;;;;;5115131;28;20110;-61
2021/03/15 08:37:47;;;;;;;23.17;4.63;;;8.10;90.50;;;;;;5115785;28;20050;-63
2021/03/15 08:40:13;;;;;;;24.63;4.00;;;8.10;90.40;;;;;;5105174;28;20108;-63
2021/03/15 08:42:39;;;;;;;35.47;4.10;;;8.10;90.30;;;;;;5115723;28;20096;-62
2021/03/15 08:45:28;;;;;;;16.52;2.88;;;8.20;90.30;;;;;;5115403;28;20080;-63
2021/03/15 08:47:57;;;;;;;23.67;3.25;;;8.20;90.30;;;;;;5114820;28;20020;-63
2021/03/15 08:50:34;;;;;;;32.63;4.35;;;8.20;90.10;;;;;;5112290;28;20547;-63
2021/03/15 08:53:01;;;;;;;29.42;5.22;;;8.30;90.20;;;;;;5113320;28;20136;-63
2021/03/15 08:55:42;;;;;;;13.90;3.05;;;8.30;90.10;;;;;;5114451;28;20165;-63
2021/03/15 08:58:37;;;;;;;29.70;5.30;;;8.40;90.20;;;;;;5115213;28;20424;-63
2021/03/15 09:01:08;;;;;;;32.60;4.57;;;8.40;90.20;;;;;;5109944;28;20019;-63
2021/03/15 09:03:52;;;;;;;17.13;3.38;;;8.40;90.10;;;;;;5112768;28;20024;-63
2021/03/15 09:06:30;;;;;;;31.05;4.22;;;8.40;90.00;;;;;;5098828;27;20064;-63
2021/03/15 09:09:06;;;;;;;30.55;5.05;;;8.40;90.10;;;;;;5108912;28;20055;-63
2021/03/15 09:11:37;;;;;;;35.92;4.28;;;8.40;90.10;;;;;;5112663;28;20054;-64
2021/03/15 09:14:15;;;;;;;33.83;5.28;;;8.50;90.10;;;;;;5110301;28;20023;-64
2021/03/15 09:16:45;;;;;;;30.70;5.25;;;8.50;89.70;;;;;;5108521;28;20522;-64
2021/03/15 09:19:20;;;;;;;26.13;4.32;;;8.50;89.30;;;;;;5110139;28;20360;-64
2021/03/15 09:21:51;;;;;;;36.22;5.32;;;8.50;89.60;;;;;;5112604;28;20505;-64
2021/03/15 09:24:44;;;;;;;24.60;4.32;;;8.50;89.30;;;;;;5113555;28;20435;-64
2021/03/15 09:27:56;;;;;;;29.63;5.73;;;8.50;89.20;;;;;;5105675;28;20036;-64
2021/03/15 09:30:28;;;;;;;23.13;4.45;;;8.60;89.40;;;;;;5110964;28;20040;-61
2021/03/15 09:32:57;;;;;;;26.35;4.32;;;8.60;89.60;;;;;;5114556;28;20063;-62
2021/03/15 09:35:34;;;;;;;25.90;3.85;;;8.60;89.50;;;;;;5115166;28;20141;-61
2021/03/15 09:38:11;;;;;;;33.75;5.45;;;8.60;89.10;;;;;;5114203;28;20027;-61
2021/03/15 09:40:40;;;;;;;37.28;5.35;;;8.60;89.30;;;;;;5114895;28;20486;-61
2021/03/15 09:43:06;;;;;;;25.08;4.05;;;8.70;89.70;;;;;;5113868;28;20235;-61
2021/03/15 09:45:35;;;;;;;29.65;5.53;;;8.70;89.40;;;;;;5110707;28;20093;-61
2021/03/15 09:48:16;;;;;;;25.00;3.83;;;8.60;89.50;;;;;;5105305;28;20024;-61
2021/03/15 09:50:46;;;;;;;27.45;4.05;;;8.70;89.80;;;;;;5099829;28;20047;-61
2021/03/15 09:53:17;;;;;;;25.70;4.47;;;8.70;90.00;;;;;;5098303;28;20040;-61
2021/03/15 09:56:24;;;;;;;29.52;4.22;;;8.80;89.20;;;;;;5099772;28;20031;-61
2021/03/15 09:58:58;;;;;;;32.97;5.70;;;8.80;89.40;;;;;;5111061;28;20032;-61
2021/03/15 10:01:24;;;;;;;22.30;4.10;;;8.80;88.90;;;;;;5112384;28;20032;-61
2021/03/15 10:04:08;;;;;;;19.23;3.00;;;8.80;89.20;;;;;;5112956;28;20057;-61
2021/03/15 10:06:56;;;;;;;31.55;4.95;;;8.90;88.20;;;;;;5109870;28;20357;-61
2021/03/15 10:09:42;;;;;;;32.05;4.15;;;8.90;87.80;;;;;;5113364;28;20089;-61
2021/03/15 10:12:28;;;;;;;17.08;3.13;;;9.00;88.20;;;;;;5061994;28;20490;-61
2021/03/15 10:15:16;;;;;;;23.95;3.58;;;9.00;88.60;;;;;;5106069;28;20024;-61
2021/03/15 10:17:57;;;;;;;25.90;4.40;;;9.00;87.80;;;;;;5099895;28;20390;-61
2021/03/15 10:20:38;;;;;;;22.98;3.47;;;9.00;87.50;;;;;;5111951;28;20034;-61
2021/03/15 10:23:15;;;;;;;25.33;3.63;;;9.10;87.90;;;;;;5113445;28;20040;-61
2021/03/15 10:26:02;;;;;;;24.13;3.22;;;9.10;88.60;;;;;;5112121;28;20482;-62
2021/03/15 10:28:38;;;;;;;30.52;4.28;;;9.20;88.50;;;;;;5111785;28;20031;-61
2021/03/15 10:31:07;;;;;;;24.77;4.13;;;9.30;87.50;;;;;;5112950;28;20024;-61
2021/03/15 10:33:35;;;;;;;22.58;3.10;;;9.30;87.20;;;;;;5111124;28;20055;-61
2021/03/15 10:36:01;;;;;;;20.60;3.38;;;9.30;87.80;;;;;;5111007;28;20024;-61
2021/03/15 10:38:30;;;;;;;25.13;4.93;;;9.30;88.00;;;;;;5111841;28;20031;-62
2021/03/15 10:41:02;;;;;;;29.10;5.28;;;9.30;86.80;;;;;;5110544;28;20042;-62
2021/03/15 10:43:28;;;;;;;22.30;3.97;;;9.30;86.40;;;;;;5111729;28;20016;-63
2021/03/15 10:46:21;;;;;;;25.08;4.18;;;9.30;86.80;;;;;;5111049;28;20027;-63
2021/03/15 10:48:50;;;;;;;31.17;3.97;;;9.40;86.60;;;;;;5102131;28;20028;-61
2021/03/15 10:51:16;;;;;;;21.83;4.22;;;9.40;86.30;;;;;;5103862;28;20027;-61
2021/03/15 10:53:53;;;;;;;18.70;3.40;;;9.50;86.10;;;;;;5106646;28;20040;-61
2021/03/15 10:56:29;;;;;;;26.40;4.40;;;9.50;87.00;;;;;;5107932;28;20058;-61
2021/03/15 10:59:00;;;;;;;34.45;6.15;;;9.50;86.70;;;;;;5109594;28;20406;-61
2021/03/15 11:01:30;;;;;;;22.25;3.97;;;9.50;86.40;;;;;;5106465;28;20024;-61
2021/03/15 11:04:11;;;;;;;32.92;4.22;;;9.60;86.90;;;;;;5101202;28;20031;-61
2021/03/15 11:06:55;;;;;;;32.38;4.40;;;9.60;86.60;;;;;;5110449;28;20100;-61
2021/03/15 11:09:37;;;;;;;30.23;4.57;;;9.60;86.50;;;;;;5110469;28;20038;-61
2021/03/15 11:12:04;;;;;;;31.92;6.22;;;9.70;86.50;;;;;;5110057;28;20028;-61
2021/03/15 11:14:32;;;;;;;34.78;5.13;;;9.60;86.10;;;;;;5110375;28;20050;-61
2021/03/15 11:17:09;;;;;;;34.58;5.55;;;9.60;86.80;;;;;;5108336;28;20027;-61
2021/03/15 11:19:52;;;;;;;33.25;4.50;;;9.70;85.90;;;;;;5109837;28;20035;-61
2021/03/15 11:22:21;;;;;;;38.42;5.53;;;9.70;86.40;;;;;;5105377;28;20429;-61
2021/03/15 11:25:11;;;;;;;24.40;4.63;;;9.80;86.30;;;;;;5102339;28;20043;-61
2021/03/15 11:27:49;;;;;;;22.50;2.80;;;9.80;86.20;;;;;;5098079;28;20087;-61
2021/03/15 11:30:24;;;;;;;29.42;4.75;;;9.80;86.20;;;;;;5109622;28;20043;-62
2021/03/15 11:33:13;;;;;;;17.60;4.28;;;9.80;85.80;;;;;;5108149;28;20094;-62
2021/03/15 11:36:01;;;;;;;33.08;5.28;;;9.80;85.00;;;;;;5107020;28;20039;-62
2021/03/15 11:38:35;;;;;;;29.27;3.75;;;9.80;85.40;;;;;;5108035;28;20118;-62
2021/03/15 11:41:15;;;;;;;37.63;3.47;;;9.90;85.90;;;;;;5110824;28;20101;-62
2021/03/15 11:43:40;;;;;;;35.15;5.65;;;9.90;86.20;;;;;;5111379;28;20024;-62
2021/03/15 11:46:07;;;;;;;39.30;5.55;;;9.90;85.10;;;;;;5110662;28;20042;-62
2021/03/15 11:48:33;;;;;;;28.05;3.78;;;10.00;84.40;;;;;;5111032;28;20028;-62
2021/03/15 11:51:12;;;;;;;31.67;5.70;;;10.00;85.20;;;;;;5108401;28;20023;-64
2021/03/15 11:53:49;;;;;;;25.70;5.07;;;10.00;85.90;;;;;;5095281;28;20032;-62
2021/03/15 11:56:17;;;;;;;37.42;5.97;;;10.00;86.50;;;;;;5092493;28;20023;-62
2021/03/15 11:58:43;;;;;;;37.55;4.72;;;10.10;84.70;;;;;;5098159;28;20028;-62
2021/03/15 12:01:10;;;;;;;31.02;5.75;;;10.10;84.50;;;;;;5101092;28;20085;-62
2021/03/15 12:03:40;;;;;;;26.92;4.75;;;10.20;84.50;;;;;;5109115;28;20126;-62
2021/03/15 12:06:17;;;;;;;22.88;4.32;;;10.10;83.00;;;;;;5112177;28;20097;-62
2021/03/15 12:09:02;;;;;;;30.17;5.32;;;10.20;84.10;;;;;;5114246;28;20027;-62
2021/03/15 12:11:28;;;;;;;19.08;3.80;;;10.20;82.30;;;;;;5113114;28;20020;-62
2021/03/15 12:13:54;;;;;;;21.85;3.35;;;10.20;84.60;;;;;;5115240;28;20043;-62
2021/03/15 12:16:21;;;;;;;24.75;5.07;;;10.20;83.60;;;;;;5114032;28;20132;-62
2021/03/15 12:18:48;;;;;;;33.45;5.60;;;10.20;84.60;;;;;;5112913;28;20467;-62
2021/03/15 12:21:14;;;;;;;25.67;4.20;;;10.20;83.20;;;;;;5113658;28;20027;-62
2021/03/15 12:23:47;;;;;;;28.08;4.80;;;10.20;84.40;;;;;;5113710;28;20027;-62
2021/03/15 12:26:14;;;;;;;31.90;4.93;;;10.20;83.70;;;;;;5113242;28;20028;-61
2021/03/15 12:28:49;;;;;;;16.35;2.80;;;10.20;84.00;;;;;;5113438;28;20027;-61
2021/03/15 12:31:23;;;;;;;33.92;4.75;;;10.20;83.10;;;;;;5112222;27;20061;-62
2021/03/15 12:33:52;;;;;;;21.80;3.13;;;10.30;83.70;;;;;;5112604;28;20126;-61
2021/03/15 12:36:18;;;;;;;38.53;5.18;;;10.30;84.30;;;;;;5113128;28;20024;-62
2021/03/15 12:38:45;;;;;;;28.77;5.43;;;10.30;84.20;;;;;;5112350;28;20031;-62
2021/03/15 12:41:11;;;;;;;24.35;3.83;;;10.30;84.00;;;;;;5113643;28;20015;-62
2021/03/15 12:43:38;;;;;;;21.20;4.13;;;10.30;84.30;;;;;;5113301;28;20541;-61
2021/03/15 12:46:18;;;;;;;38.88;4.47;;;10.30;82.80;;;;;;5109690;28;20111;-62
2021/03/15 12:48:46;;;;;;;15.98;3.53;;;10.40;83.60;;;;;;5111738;28;20032;-62
2021/03/15 12:51:12;;;;;;;21.48;4.28;;;10.40;84.90;;;;;;5115129;28;20366;-62
2021/03/15 12:53:39;;;;;;;28.10;4.55;;;10.30;83.40;;;;;;5113767;28;20040;-62
2021/03/15 12:56:13;;;;;;;15.38;2.40;;;10.30;83.20;;;;;;5113080;28;20020;-62
2021/03/15 12:58:39;;;;;;;36.08;5.53;;;10.30;84.90;;;;;;5111473;28;20031;-62
2021/03/15 13:01:23;;;;;;;20.33;1.95;;;10.30;83.80;;;;;;5112612;28;20050;-62
2021/03/15 13:03:56;;;;;;;25.48;4.18;;;10.40;84.70;;;;;;5112803;28;20495;-62
2021/03/15 13:06:25;;;;;;;24.52;4.28;;;10.40;83.80;;;;;;5113181;28;20023;-62
2021/03/15 13:09:02;;;;;;;26.08;3.95;;;10.30;83.40;;;;;;5111702;28;20024;-62
2021/03/15 13:11:28;;;;;;;19.13;3.65;;;10.30;84.70;;;;;;5109294;28;20470;-62
2021/03/15 13:14:14;;;;;;;25.80;4.53;;;10.30;84.70;;;;;;5110340;28;20035;-62